Time;durP1;ratioP1;P1;durP2;ratioP2;P2;SDS_P1;SDS_P2;PMS_P1;PMS_P2;Temp;Humidity;BMP_temperature;BMP_pressure;BME280_temperature;BME280_humidity;BME280_pressure;Samples;Min_cycle;Max_cycle;Signal;HPM_P1;HPM_P2
2021/08/04 00:02:39;;;;;;;10.10;9.20;;;;;14.10;100787.00;;;;10554690;28;20184;-75
2021/08/04 00:07:42;;;;;;;10.87;9.73;;;;;14.00;100786.00;;;;10589323;28;20540;-75
2021/08/04 00:12:45;;;;;;;11.93;9.47;;;;;14.00;100788.00;;;;10537452;28;20643;-75
2021/08/04 00:17:47;;;;;;;11.10;9.43;;;;;13.90;100789.00;;;;10521044;28;20261;-75
2021/08/04 00:22:49;;;;;;;12.93;10.73;;;;;13.90;100791.00;;;;10570585;28;20200;-75
2021/08/04 00:27:51;;;;;;;14.90;13.33;;;;;13.80;100783.00;;;;10553763;28;20209;-76
2021/08/04 00:32:54;;;;;;;17.13;14.20;;;;;13.80;100783.00;;;;10536458;28;20243;-75
2021/08/04 00:37:56;;;;;;;15.60;14.03;;;;;13.70;100784.00;;;;10553287;28;20275;-75
2021/08/04 00:42:58;;;;;;;14.67;12.73;;;;;13.70;100789.00;;;;10553154;28;20204;-75
2021/08/04 00:48:02;;;;;;;16.70;14.83;;;;;13.70;100783.00;;;;10553660;28;20208;-75
2021/08/04 00:53:29;;;;;;;16.07;14.37;;;;;13.70;100793.00;;;;10546680;28;20204;-75
2021/08/04 00:58:46;;;;;;;22.03;18.47;;;;;13.70;100794.00;;;;10497528;28;20192;-75
2021/08/04 01:04:14;;;;;;;19.63;15.53;;;;;13.80;100790.00;;;;10527215;28;20193;-75
2021/08/04 01:09:19;;;;;;;21.10;17.07;;;;;13.80;100792.00;;;;10503754;28;20628;-76
2021/08/04 01:14:25;;;;;;;18.00;16.07;;;;;13.90;100788.00;;;;10509366;28;20181;-75
2021/08/04 01:19:33;;;;;;;21.27;16.50;;;;;13.80;100797.00;;;;10509726;28;20196;-76
2021/08/04 01:24:50;;;;;;;18.87;15.67;;;;;13.80;100786.00;;;;10526490;28;20212;-75
2021/08/04 01:29:53;;;;;;;20.03;16.60;;;;;13.80;100801.00;;;;10551291;28;20184;-76
2021/08/04 01:34:56;;;;;;;19.67;16.07;;;;;13.80;100795.00;;;;10567962;28;20235;-75
2021/08/04 01:40:00;;;;;;;19.60;15.83;;;;;13.80;100791.00;;;;10567406;28;20333;-75
2021/08/04 01:45:05;;;;;;;16.67;14.30;;;;;13.80;100776.00;;;;10550629;28;20227;-75
2021/08/04 01:50:08;;;;;;;20.23;15.63;;;;;13.70;100772.00;;;;10584349;28;20188;-75
2021/08/04 01:55:16;;;;;;;19.93;16.73;;;;;13.70;100768.00;;;;10525401;28;20200;-76
2021/08/04 02:00:18;;;;;;;18.37;16.43;;;;;13.60;100771.00;;;;10525091;28;20189;-75
2021/08/04 02:05:20;;;;;;;17.47;15.03;;;;;13.50;100770.00;;;;10524421;28;20215;-75
2021/08/04 02:10:41;;;;;;;16.63;14.83;;;;;13.50;100768.00;;;;10507381;28;20192;-75
2021/08/04 02:15:46;;;;;;;16.27;14.60;;;;;13.40;100760.00;;;;10507510;28;20189;-75
2021/08/04 02:20:49;;;;;;;19.13;16.03;;;;;13.40;100762.00;;;;10523465;28;20203;-75
2021/08/04 02:25:59;;;;;;;21.33;16.67;;;;;13.40;100764.00;;;;10570107;28;20204;-76
2021/08/04 02:31:03;;;;;;;21.87;16.07;;;;;13.30;100758.00;;;;10565549;28;20184;-75
2021/08/04 02:36:05;;;;;;;21.93;16.20;;;;;13.30;100765.00;;;;10565536;28;20200;-75
2021/08/04 02:41:07;;;;;;;18.83;16.77;;;;;13.30;100760.00;;;;10547904;28;20200;-75
2021/08/04 02:46:10;;;;;;;17.40;15.60;;;;;13.20;100761.00;;;;10547734;28;20212;-75
2021/08/04 02:51:14;;;;;;;19.57;16.13;;;;;13.20;100766.00;;;;10582930;28;20283;-75
2021/08/04 02:56:16;;;;;;;20.03;15.07;;;;;13.10;100766.00;;;;10530855;28;20292;-75
2021/08/04 03:01:18;;;;;;;21.37;15.10;;;;;13.00;100760.00;;;;10547289;28;20199;-75
2021/08/04 03:06:20;;;;;;;20.67;16.57;;;;;13.00;100770.00;;;;10547664;28;20214;-75
2021/08/04 03:11:22;;;;;;;19.10;17.20;;;;;13.10;100780.00;;;;10547282;28;20192;-75
2021/08/04 03:16:24;;;;;;;21.43;17.50;;;;;13.20;100776.00;;;;10530544;28;20188;-74
2021/08/04 03:21:26;;;;;;;23.47;19.13;;;;;13.30;100785.00;;;;10546966;28;20200;-75
2021/08/04 03:26:28;;;;;;;30.93;19.07;;;;;13.30;100795.00;;;;10504831;28;20222;-76
2021/08/04 03:31:30;;;;;;;21.70;19.10;;;;;13.30;100798.00;;;;10521667;28;20185;-76
2021/08/04 03:36:31;;;;;;;20.87;18.20;;;;;13.30;100802.00;;;;10504424;28;20201;-76
2021/08/04 03:41:33;;;;;;;19.60;17.23;;;;;13.20;100797.00;;;;10521107;28;20250;-76
2021/08/04 03:46:36;;;;;;;20.40;18.30;;;;;13.10;100802.00;;;;10504490;28;20224;-76
2021/08/04 03:51:38;;;;;;;17.47;15.67;;;;;13.00;100800.00;;;;10521035;28;20666;-75
2021/08/04 03:56:40;;;;;;;18.60;16.30;;;;;12.90;100809.00;;;;10538643;28;20651;-75
2021/08/04 04:01:42;;;;;;;19.10;17.00;;;;;12.90;100804.00;;;;10487777;28;20199;-75
2021/08/04 04:06:44;;;;;;;24.10;18.30;;;;;12.90;100817.00;;;;10520585;28;20205;-75
2021/08/04 04:11:46;;;;;;;23.07;20.00;;;;;12.90;100822.00;;;;10503878;28;20188;-75
2021/08/04 04:16:48;;;;;;;24.33;21.37;;;;;12.90;100817.00;;;;10520404;28;20235;-75
2021/08/04 04:21:49;;;;;;;28.37;22.03;;;;;13.00;100827.00;;;;10487211;28;20224;-75
2021/08/04 04:26:52;;;;;;;30.40;24.23;;;;;13.10;100817.00;;;;10522195;28;20213;-75
2021/08/04 04:31:54;;;;;;;26.83;23.47;;;;;13.20;100828.00;;;;10519785;28;20968;-75
2021/08/04 04:36:56;;;;;;;27.23;23.60;;;;;13.20;100834.00;;;;10503333;28;20197;-75
2021/08/04 04:41:58;;;;;;;35.87;26.00;;;;;13.30;100833.00;;;;10486184;28;20262;-75
2021/08/04 04:47:00;;;;;;;28.13;22.60;;;;;13.40;100844.00;;;;10523242;28;20209;-75
2021/08/04 04:52:03;;;;;;;23.63;20.63;;;;;13.60;100829.00;;;;10510982;28;20251;-75
2021/08/04 04:57:04;;;;;;;23.10;20.63;;;;;13.70;100832.00;;;;10567047;28;20185;-76
2021/08/04 05:02:06;;;;;;;22.93;20.17;;;;;13.70;100836.00;;;;10534437;28;20672;-76
2021/08/04 05:07:08;;;;;;;22.53;19.63;;;;;13.80;100829.00;;;;10527298;28;20205;-76
2021/08/04 05:12:10;;;;;;;24.17;19.03;;;;;13.80;100844.00;;;;10493441;28;20201;-75
2021/08/04 05:17:13;;;;;;;23.40;19.40;;;;;13.90;100836.00;;;;10510001;28;20218;-75
2021/08/04 05:22:16;;;;;;;21.27;18.93;;;;;14.10;100832.00;;;;10513294;27;20292;-75
2021/08/04 05:27:18;;;;;;;22.70;20.27;;;;;14.20;100837.00;;;;10545622;28;20215;-75
2021/08/04 05:32:19;;;;;;;22.23;18.77;;;;;14.30;100844.00;;;;10568072;28;20212;-75
2021/08/04 05:37:21;;;;;;;21.83;18.07;;;;;14.40;100851.00;;;;10534067;28;20188;-76
2021/08/04 05:42:23;;;;;;;21.83;19.33;;;;;14.50;100846.00;;;;10550781;28;20555;-75
2021/08/04 05:47:25;;;;;;;20.97;18.63;;;;;14.80;100856.00;;;;10567274;28;20663;-76
2021/08/04 05:52:27;;;;;;;24.97;20.60;;;;;15.20;100861.00;;;;10534505;27;20192;-75
2021/08/04 05:57:28;;;;;;;25.03;20.90;;;;;15.60;100864.00;;;;10575604;27;20187;-75
2021/08/04 06:02:31;;;;;;;26.77;20.63;;;;;16.10;100867.00;;;;10609108;27;20638;-76
2021/08/04 06:07:33;;;;;;;26.33;21.23;;;;;16.70;100880.00;;;;10563303;27;20204;-76
2021/08/04 06:12:35;;;;;;;22.57;19.77;;;;;17.00;100893.00;;;;10584859;28;20239;-76
2021/08/04 06:17:37;;;;;;;21.88;19.48;;;;;17.40;100897.00;;;;10557002;28;20299;-76
2021/08/04 06:22:39;;;;;;;18.63;16.80;;;;;18.00;100902.00;;;;10543073;27;20191;-76
2021/08/04 06:27:41;;;;;;;16.00;14.40;;;;;18.30;100912.00;;;;10536866;28;20661;-77
2021/08/04 06:32:43;;;;;;;18.95;13.80;;;;;18.10;100914.00;;;;10578927;27;20271;-76
2021/08/04 06:37:46;;;;;;;14.48;12.98;;;;;18.60;100912.00;;;;10535901;28;20180;-76
2021/08/04 06:42:47;;;;;;;14.95;13.35;;;;;19.10;100917.00;;;;10535828;28;20205;-77
2021/08/04 06:47:49;;;;;;;13.10;11.88;;;;;19.50;100921.00;;;;10525857;28;20216;-77
2021/08/04 06:52:53;;;;;;;15.60;12.18;;;;;19.10;100924.00;;;;10508138;27;20188;-77
2021/08/04 06:57:54;;;;;;;16.58;13.25;;;;;19.10;100923.00;;;;10566476;28;20248;-76
2021/08/04 07:02:56;;;;;;;16.23;14.65;;;;;19.20;100924.00;;;;10549621;28;20184;-77
2021/08/04 07:07:58;;;;;;;15.98;14.27;;;;;18.90;100918.00;;;;10565647;28;20200;-77
2021/08/04 07:13:01;;;;;;;19.98;16.02;;;;;18.90;100909.00;;;;10565424;28;20651;-77
2021/08/04 07:18:06;;;;;;;19.60;16.23;;;;;18.90;100912.00;;;;10514024;28;20188;-77
2021/08/04 07:23:08;;;;;;;20.83;18.67;;;;;19.50;100906.00;;;;10556084;27;20196;-76
2021/08/04 07:28:10;;;;;;;19.85;15.77;;;;;20.50;100909.00;;;;10558289;28;20200;-77
2021/08/04 07:33:12;;;;;;;15.73;14.10;;;;;21.00;100913.00;;;;10547756;28;20223;-75
2021/08/04 07:38:14;;;;;;;15.75;14.07;;;;;21.00;100918.00;;;;10563682;28;20199;-75
2021/08/04 07:43:15;;;;;;;16.35;12.98;;;;;21.50;100918.00;;;;10527246;28;20255;-75
2021/08/04 07:48:17;;;;;;;16.15;14.45;;;;;22.00;100919.00;;;;10523474;28;20262;-76
2021/08/04 07:53:19;;;;;;;14.57;12.98;;;;;22.40;100913.00;;;;10501483;28;20261;-76
2021/08/04 07:58:21;;;;;;;16.27;13.63;;;;;23.00;100926.00;;;;10507990;28;20246;-76
2021/08/04 08:03:23;;;;;;;18.00;14.10;;;;;22.30;100925.00;;;;10506851;28;20200;-77
2021/08/04 08:08:25;;;;;;;17.23;15.07;;;;;22.00;100926.00;;;;10548203;28;20605;-76
2021/08/04 08:13:27;;;;;;;17.10;13.85;;;;;22.20;100936.00;;;;10562384;28;20649;-76
2021/08/04 08:18:29;;;;;;;17.90;14.52;;;;;22.50;100931.00;;;;10544969;28;20204;-76
2021/08/04 08:23:31;;;;;;;14.40;13.00;;;;;23.60;100917.00;;;;10587857;28;20242;-76
2021/08/04 08:28:33;;;;;;;17.05;13.50;;;;;24.40;100920.00;;;;10588849;28;20204;-76
2021/08/04 08:33:35;;;;;;;13.38;11.40;;;;;24.10;100922.00;;;;10589871;28;20605;-77
2021/08/04 08:38:37;;;;;;;13.73;12.32;;;;;23.40;100922.00;;;;10575319;27;20226;-77
2021/08/04 08:43:39;;;;;;;14.00;12.00;;;;;23.40;100905.00;;;;10599600;27;20269;-77
2021/08/04 08:48:49;;;;;;;15.50;11.23;;;;;23.90;100909.00;;;;10570865;28;20207;-76
2021/08/04 08:53:52;;;;;;;12.65;11.13;;;;;23.80;100902.00;;;;10553605;27;20200;-77
2021/08/04 08:58:55;;;;;;;13.02;10.43;;;;;24.00;100899.00;;;;10512900;28;20218;-76
2021/08/04 09:04:01;;;;;;;9.50;8.50;;;;;24.50;100892.00;;;;10529478;28;20204;-76
2021/08/04 09:09:32;;;;;;;11.82;8.63;;;;;24.80;100887.00;;;;10548629;27;20209;-77
2021/08/04 09:14:36;;;;;;;11.25;8.15;;;;;24.60;100888.00;;;;10550664;27;20231;-77
2021/08/04 09:19:51;;;;;;;8.52;7.60;;;;;25.60;100890.00;;;;10514232;28;20852;-76
2021/08/04 09:25:08;;;;;;;10.07;8.48;;;;;25.00;100889.00;;;;10533533;27;20238;-77
2021/08/04 09:30:13;;;;;;;8.27;7.32;;;;;25.10;100876.00;;;;10510309;28;20639;-77
2021/08/04 09:35:18;;;;;;;10.40;7.00;;;;;25.90;100885.00;;;;10528084;28;20697;-77
2021/08/04 09:40:24;;;;;;;13.07;7.05;;;;;24.70;100876.00;;;;10553208;28;20242;-77
2021/08/04 09:45:48;;;;;;;8.40;7.55;;;;;23.30;100884.00;;;;10509871;28;20215;-77
2021/08/04 09:50:55;;;;;;;10.93;8.05;;;;;22.70;100871.00;;;;10529679;28;20242;-77
2021/08/04 09:56:18;;;;;;;12.82;7.88;;;;;22.50;100878.00;;;;10526251;28;20344;-76
2021/08/04 10:01:22;;;;;;;9.90;7.25;;;;;22.60;100869.00;;;;10539083;28;20566;-76
2021/08/04 10:06:25;;;;;;;10.10;8.15;;;;;22.60;100863.00;;;;10539242;27;20220;-76
2021/08/04 10:11:30;;;;;;;11.82;8.85;;;;;23.20;100859.00;;;;10590670;27;20197;-76
2021/08/04 10:16:35;;;;;;;12.02;9.68;;;;;23.20;100849.00;;;;10537725;28;20193;-77
2021/08/04 10:21:40;;;;;;;13.57;11.02;;;;;23.50;100855.00;;;;10507496;28;20883;-76
2021/08/04 10:26:42;;;;;;;11.45;10.32;;;;;23.90;100852.00;;;;10524542;28;20197;-77
2021/08/04 10:31:46;;;;;;;14.98;10.85;;;;;23.70;100837.00;;;;10520126;28;20655;-77
2021/08/04 10:36:57;;;;;;;17.05;9.40;;;;;23.70;100844.00;;;;10585973;28;20173;-77
2021/08/04 10:42:01;;;;;;;13.35;9.63;;;;;23.60;100832.00;;;;10565804;27;20192;-77
2021/08/04 10:47:04;;;;;;;11.88;8.65;;;;;23.40;100830.00;;;;10566177;28;20200;-77
2021/08/04 10:52:09;;;;;;;11.00;9.57;;;;;22.80;100836.00;;;;10542897;27;20583;-77
2021/08/04 10:57:11;;;;;;;11.57;8.80;;;;;22.30;100831.00;;;;10513122;28;20832;-76
2021/08/04 11:02:13;;;;;;;10.65;9.18;;;;;21.90;100829.00;;;;10523332;28;20205;-77
2021/08/04 11:07:17;;;;;;;11.93;9.43;;;;;21.50;100835.00;;;;10523431;28;20201;-77
2021/08/04 11:12:21;;;;;;;10.80;8.55;;;;;21.20;100831.00;;;;10489838;28;20223;-76
2021/08/04 11:17:31;;;;;;;11.23;10.05;;;;;21.10;100831.00;;;;10525203;28;20276;-76
2021/08/04 11:22:39;;;;;;;14.05;9.90;;;;;21.20;100827.00;;;;10512073;28;20249;-76
2021/08/04 11:28:03;;;;;;;11.68;9.95;;;;;21.50;100817.00;;;;10504848;28;20220;-77
2021/08/04 11:33:29;;;;;;;9.88;8.68;;;;;21.30;100818.00;;;;10518344;28;20212;-76
2021/08/04 11:38:48;;;;;;;9.45;8.52;;;;;21.40;100823.00;;;;10530968;28;20280;-76
2021/08/04 11:43:58;;;;;;;12.38;9.38;;;;;21.60;100817.00;;;;10563877;27;20238;-76
2021/08/04 11:49:01;;;;;;;10.60;9.50;;;;;21.90;100810.00;;;;10543850;27;20257;-76
2021/08/04 11:54:05;;;;;;;10.02;8.00;;;;;22.90;100802.00;;;;10558829;28;20195;-76
2021/08/04 11:59:07;;;;;;;5.82;5.30;;;;;24.60;100803.00;;;;10563175;28;20188;-76
2021/08/04 12:04:12;;;;;;;6.57;5.50;;;;;27.50;100798.00;;;;10558608;28;20251;-76
2021/08/04 12:09:22;;;;;;;8.25;7.38;;;;;28.80;100802.00;;;;10530029;28;20200;-77
2021/08/04 12:14:25;;;;;;;8.77;7.85;;;;;29.10;100813.00;;;;10538815;28;20189;-76
2021/08/04 12:19:32;;;;;;;8.02;7.22;;;;;28.00;100807.00;;;;10589292;28;20185;-76
2021/08/04 12:24:43;;;;;;;10.02;8.15;;;;;28.80;100797.00;;;;10525331;28;20201;-76
2021/08/04 12:29:45;;;;;;;8.35;7.05;;;;;29.10;100795.00;;;;10534280;28;20204;-76
2021/08/04 12:34:58;;;;;;;8.60;7.80;;;;;27.80;100797.00;;;;10502362;28;20260;-77
2021/08/04 12:40:12;;;;;;;7.45;6.75;;;;;27.40;100784.00;;;;10484384;28;20925;-76
2021/08/04 12:45:27;;;;;;;6.95;5.97;;;;;28.10;100788.00;;;;10541082;28;20196;-76
2021/08/04 12:50:49;;;;;;;6.18;5.28;;;;;28.40;100798.00;;;;10515928;28;20189;-77
2021/08/04 12:56:09;;;;;;;6.70;6.00;;;;;28.00;100810.00;;;;10501577;28;20555;-76
2021/08/04 13:01:19;;;;;;;7.93;6.95;;;;;27.70;100802.00;;;;10533857;28;20201;-76
2021/08/04 13:06:48;;;;;;;10.10;6.63;;;;;28.20;100801.00;;;;10502741;28;20231;-76
2021/08/04 13:11:53;;;;;;;7.40;6.13;;;;;28.60;100804.00;;;;10530287;28;20197;-77
2021/08/04 13:16:56;;;;;;;6.78;6.18;;;;;28.70;100809.00;;;;10501022;27;20193;-76
2021/08/04 13:22:07;;;;;;;9.23;8.43;;;;;26.90;100810.00;;;;10540262;27;20827;-76
2021/08/04 13:27:29;;;;;;;9.95;8.13;;;;;25.40;100792.00;;;;10532970;28;20251;-76
2021/08/04 13:32:31;;;;;;;7.95;7.10;;;;;25.40;100798.00;;;;10545397;28;20216;-76
2021/08/04 13:37:33;;;;;;;7.43;6.80;;;;;25.10;100803.00;;;;10531991;28;20195;-76
2021/08/04 13:42:36;;;;;;;6.80;6.20;;;;;25.20;100797.00;;;;10543637;28;20196;-76
2021/08/04 13:47:39;;;;;;;8.45;5.90;;;;;25.10;100797.00;;;;10570320;28;20678;-76
2021/08/04 13:52:43;;;;;;;6.45;5.85;;;;;25.40;100793.00;;;;10545323;28;20640;-77
2021/08/04 13:57:45;;;;;;;7.20;6.50;;;;;26.30;100788.00;;;;10546406;27;20199;-76
2021/08/04 14:02:48;;;;;;;6.63;5.50;;;;;27.50;100775.00;;;;10580946;27;20188;-77
2021/08/04 14:07:51;;;;;;;9.57;8.57;;;;;28.50;100774.00;;;;10549624;28;20736;-76
2021/08/04 14:12:53;;;;;;;10.60;9.40;;;;;28.40;100773.00;;;;10566629;28;20176;-76
2021/08/04 14:17:55;;;;;;;10.18;8.63;;;;;29.90;100765.00;;;;10552471;27;20189;-77
2021/08/04 14:22:58;;;;;;;9.07;8.25;;;;;32.80;100758.00;;;;10544643;27;20201;-77
2021/08/04 14:28:06;;;;;;;7.78;7.00;;;;;32.00;100765.00;;;;10488771;28;20255;-77
2021/08/04 14:33:08;;;;;;;7.80;6.97;;;;;28.80;100762.00;;;;10530978;27;20222;-77
2021/08/04 14:38:10;;;;;;;7.25;6.13;;;;;27.80;100750.00;;;;10580515;27;20188;-77
2021/08/04 14:43:12;;;;;;;7.18;6.43;;;;;27.10;100757.00;;;;10506931;28;20192;-76
2021/08/04 14:48:16;;;;;;;6.50;5.88;;;;;27.40;100751.00;;;;10549166;28;20728;-78
2021/08/04 14:53:18;;;;;;;8.85;5.65;;;;;30.90;100739.00;;;;10566806;27;20196;-77
2021/08/04 14:58:22;;;;;;;6.60;6.00;;;;;28.20;100740.00;;;;10548021;28;20200;-77
2021/08/04 15:03:24;;;;;;;7.22;6.28;;;;;27.30;100741.00;;;;10582540;28;20211;-78
2021/08/04 15:08:26;;;;;;;5.95;5.40;;;;;31.70;100730.00;;;;10547864;28;20725;-78
2021/08/04 15:13:28;;;;;;;4.93;4.53;;;;;32.20;100728.00;;;;10547816;28;20721;-78
2021/08/04 15:18:30;;;;;;;7.55;6.65;;;;;27.90;100745.00;;;;10549280;28;20200;-78
2021/08/04 15:23:33;;;;;;;7.28;6.57;;;;;25.20;100737.00;;;;10548537;28;20262;-78
2021/08/04 15:28:44;;;;;;;6.30;5.18;;;;;24.10;100743.00;;;;10548154;28;20200;-78
2021/08/04 15:33:46;;;;;;;6.30;5.43;;;;;24.10;100736.00;;;;10536285;27;20255;-77
2021/08/04 15:38:48;;;;;;;6.97;5.00;;;;;24.10;100730.00;;;;10539133;27;20763;-77
2021/08/04 15:43:50;;;;;;;3.97;3.67;;;;;24.30;100726.00;;;;10583469;27;20225;-77
2021/08/04 15:48:51;;;;;;;4.70;4.30;;;;;24.30;100721.00;;;;10558442;27;20265;-78
2021/08/04 15:53:59;;;;;;;5.70;4.28;;;;;24.30;100714.00;;;;10522723;28;20200;-78
2021/08/04 15:59:01;;;;;;;6.10;5.50;;;;;24.30;100714.00;;;;10508076;28;20210;-77
2021/08/04 16:04:04;;;;;;;6.57;5.95;;;;;24.30;100700.00;;;;10505601;28;20189;-77
2021/08/04 16:09:06;;;;;;;7.70;7.00;;;;;24.10;100697.00;;;;10524107;28;20813;-78
2021/08/04 16:14:08;;;;;;;7.00;6.28;;;;;24.20;100685.00;;;;10472917;28;20285;-77
2021/08/04 16:19:11;;;;;;;7.13;6.43;;;;;24.50;100693.00;;;;10541133;28;20267;-77
2021/08/04 16:24:12;;;;;;;9.65;6.30;;;;;24.90;100677.00;;;;10523189;28;20200;-77
2021/08/04 16:29:14;;;;;;;7.07;6.45;;;;;24.70;100677.00;;;;10548435;28;20209;-77
2021/08/04 16:34:17;;;;;;;7.50;6.80;;;;;24.30;100678.00;;;;10531753;28;20269;-77
2021/08/04 16:39:19;;;;;;;8.48;6.47;;;;;23.90;100686.00;;;;10565461;28;20185;-77
2021/08/04 16:44:20;;;;;;;8.75;7.93;;;;;23.80;100679.00;;;;10571059;28;20200;-77
2021/08/04 16:49:22;;;;;;;10.32;7.65;;;;;23.70;100669.00;;;;10556430;28;20257;-77
2021/08/04 16:54:24;;;;;;;8.80;7.78;;;;;23.40;100672.00;;;;10556682;28;20192;-77
2021/08/04 16:59:26;;;;;;;12.07;9.30;;;;;22.90;100670.00;;;;10591204;28;20180;-77
2021/08/04 17:04:28;;;;;;;12.20;10.80;;;;;22.50;100676.00;;;;10555504;28;20195;-77
2021/08/04 17:09:31;;;;;;;12.00;10.90;;;;;22.10;100665.00;;;;10559558;28;20201;-77
2021/08/04 17:14:32;;;;;;;12.75;10.43;;;;;21.90;100663.00;;;;10530285;28;20702;-77
2021/08/04 17:19:35;;;;;;;12.30;10.88;;;;;21.80;100662.00;;;;10496437;28;20252;-77
2021/08/04 17:24:39;;;;;;;11.93;10.73;;;;;21.60;100671.00;;;;10528878;28;20185;-77
2021/08/04 17:29:40;;;;;;;14.43;12.93;;;;;21.60;100673.00;;;;10512592;28;20208;-78
2021/08/04 17:34:42;;;;;;;12.60;10.50;;;;;21.50;100676.00;;;;10495431;28;20212;-77
2021/08/04 17:39:44;;;;;;;12.57;11.32;;;;;21.50;100674.00;;;;10495640;28;20280;-77
2021/08/04 17:44:46;;;;;;;13.30;10.40;;;;;21.30;100684.00;;;;10512009;28;20196;-77
2021/08/04 17:49:48;;;;;;;13.98;12.50;;;;;21.10;100680.00;;;;10511680;28;20664;-77
2021/08/04 17:54:50;;;;;;;12.23;11.02;;;;;20.90;100678.00;;;;10538250;27;20197;-77
2021/08/04 17:59:52;;;;;;;11.32;10.27;;;;;20.70;100678.00;;;;10511772;28;20196;-78
2021/08/04 18:04:54;;;;;;;12.05;10.50;;;;;20.50;100689.00;;;;10511373;28;20227;-77
2021/08/04 18:09:56;;;;;;;14.27;11.15;;;;;20.40;100694.00;;;;10528053;28;20205;-77
2021/08/04 18:14:59;;;;;;;14.95;10.98;;;;;20.20;100694.00;;;;10511300;28;20204;-77
2021/08/04 18:20:02;;;;;;;11.73;10.63;;;;;20.00;100696.00;;;;10527198;28;20193;-78
2021/08/04 18:25:04;;;;;;;12.60;11.35;;;;;19.90;100704.00;;;;10533835;28;20199;-77
2021/08/04 18:30:07;;;;;;;15.02;10.52;;;;;19.80;100707.00;;;;10552546;28;20207;-77
2021/08/04 18:35:09;;;;;;;11.68;10.50;;;;;19.70;100716.00;;;;10518382;28;20679;-77
2021/08/04 18:40:12;;;;;;;12.07;10.88;;;;;19.60;100717.00;;;;10569373;28;20177;-77
2021/08/04 18:45:14;;;;;;;11.52;10.15;;;;;19.50;100725.00;;;;10525985;28;20307;-77
2021/08/04 18:50:16;;;;;;;13.02;11.77;;;;;19.40;100725.00;;;;10509577;28;20213;-77
2021/08/04 18:55:18;;;;;;;14.95;13.43;;;;;19.20;100737.00;;;;10533856;28;20192;-77
2021/08/04 19:00:20;;;;;;;15.27;13.73;;;;;19.00;100743.00;;;;10534373;28;20249;-77
2021/08/04 19:05:34;;;;;;;15.55;13.68;;;;;18.90;100737.00;;;;10533583;28;20196;-77
2021/08/04 19:10:37;;;;;;;15.55;14.05;;;;;18.80;100734.00;;;;10566958;28;20199;-78
2021/08/04 19:15:39;;;;;;;16.10;14.02;;;;;18.70;100742.00;;;;10550304;28;20585;-77
2021/08/04 19:20:41;;;;;;;17.02;15.32;;;;;18.70;100740.00;;;;10533870;28;20184;-77
2021/08/04 19:25:43;;;;;;;15.77;14.15;;;;;18.70;100736.00;;;;10549686;28;20196;-77
2021/08/04 19:30:44;;;;;;;15.63;14.05;;;;;18.60;100746.00;;;;10549783;28;20204;-76
2021/08/04 19:35:46;;;;;;;17.55;16.00;;;;;18.60;100746.00;;;;10531257;28;20236;-77
2021/08/04 19:40:48;;;;;;;16.65;15.05;;;;;18.50;100744.00;;;;10532447;28;20199;-77
2021/08/04 19:45:52;;;;;;;17.70;15.80;;;;;18.50;100755.00;;;;10549475;28;20234;-76
2021/08/04 19:50:54;;;;;;;17.73;16.08;;;;;18.40;100756.00;;;;10583634;28;20204;-77
2021/08/04 19:55:55;;;;;;;16.98;15.23;;;;;18.20;100761.00;;;;10565234;28;20870;-77
2021/08/04 20:00:57;;;;;;;20.30;18.15;;;;;18.10;100756.00;;;;10551570;28;20275;-82
2021/08/04 20:05:59;;;;;;;23.30;21.02;;;;;17.90;100749.00;;;;10537499;28;20184;-81
2021/08/04 20:11:02;;;;;;;25.75;23.02;;;;;17.60;100750.00;;;;10536094;28;20215;-81
2021/08/04 20:16:04;;;;;;;29.17;26.25;;;;;17.30;100747.00;;;;10556651;28;20195;-83
2021/08/04 20:21:07;;;;;;;32.08;28.88;;;;;17.20;100752.00;;;;10544868;28;20760;-84
2021/08/04 20:26:09;;;;;;;34.88;31.10;;;;;17.20;100749.00;;;;10578065;27;20587;-84
2021/08/04 20:31:11;;;;;;;34.25;30.77;;;;;17.10;100732.00;;;;10569456;27;20301;-82
2021/08/04 20:36:14;;;;;;;37.25;32.38;;;;;17.10;100726.00;;;;10583685;27;20219;-81
2021/08/04 20:41:16;;;;;;;32.90;29.50;;;;;17.00;100722.00;;;;10582222;27;20662;-79
2021/08/04 20:46:18;;;;;;;35.90;32.40;;;;;16.90;100720.00;;;;10597900;27;20192;-78
2021/08/04 20:51:19;;;;;;;36.88;33.03;;;;;16.80;100719.00;;;;10581927;27;20680;-79
2021/08/04 20:56:21;;;;;;;38.30;33.50;;;;;16.80;100705.00;;;;10581412;27;20200;-78
2021/08/04 21:01:28;;;;;;;35.80;32.15;;;;;16.80;100705.00;;;;10528630;27;20644;-78
2021/08/04 21:06:30;;;;;;;39.30;35.05;;;;;16.80;100709.00;;;;10513541;28;20723;-78
2021/08/04 21:11:32;;;;;;;39.67;35.40;;;;;16.70;100707.00;;;;10513088;28;20725;-78
2021/08/04 21:16:34;;;;;;;38.15;34.03;;;;;16.70;100702.00;;;;10513065;28;20197;-77
2021/08/04 21:21:36;;;;;;;36.78;32.88;;;;;16.70;100715.00;;;;10496621;28;20189;-77
2021/08/04 21:26:38;;;;;;;33.28;29.65;;;;;16.60;100705.00;;;;10583382;27;20196;-77
2021/08/04 21:31:40;;;;;;;32.53;28.35;;;;;16.60;100699.00;;;;10596188;27;20215;-77
2021/08/04 21:36:42;;;;;;;33.20;29.77;;;;;16.60;100704.00;;;;10596294;27;20223;-76
2021/08/04 21:41:44;;;;;;;35.03;29.95;;;;;16.50;100706.00;;;;10595927;27;20665;-76
2021/08/04 21:46:46;;;;;;;33.53;29.67;;;;;16.50;100712.00;;;;10562440;27;20192;-76
2021/08/04 21:51:48;;;;;;;34.37;30.67;;;;;16.50;100705.00;;;;10612632;27;20180;-77
2021/08/04 21:56:50;;;;;;;34.80;29.55;;;;;16.50;100702.00;;;;10580029;27;20682;-77
2021/08/04 22:01:52;;;;;;;31.97;28.30;;;;;16.40;100713.00;;;;10536955;28;20192;-78
2021/08/04 22:07:08;;;;;;;32.80;29.17;;;;;16.40;100707.00;;;;10557558;28;20186;-78
2021/08/04 22:12:10;;;;;;;37.40;30.53;;;;;16.30;100710.00;;;;10554388;28;20715;-77
2021/08/04 22:17:12;;;;;;;34.53;30.37;;;;;16.30;100711.00;;;;10553263;28;20193;-78
2021/08/04 22:22:14;;;;;;;37.43;32.30;;;;;16.20;100715.00;;;;10553066;28;20647;-77
2021/08/04 22:27:16;;;;;;;37.55;33.45;;;;;16.20;100715.00;;;;10495031;28;20227;-77
2021/08/04 22:32:18;;;;;;;36.93;31.33;;;;;16.20;100710.00;;;;10527645;28;20209;-78
2021/08/04 22:37:20;;;;;;;39.70;33.17;;;;;16.10;100716.00;;;;10493041;28;20192;-77
2021/08/04 22:42:22;;;;;;;41.97;34.53;;;;;16.20;100725.00;;;;10526539;28;20841;-77
2021/08/04 22:47:24;;;;;;;44.27;35.30;;;;;16.10;100711.00;;;;10493228;28;20282;-77
2021/08/04 22:52:25;;;;;;;38.77;33.63;;;;;16.10;100721.00;;;;10515806;27;20188;-77
2021/08/04 22:57:27;;;;;;;42.90;36.97;;;;;16.10;100716.00;;;;10514150;28;20188;-77
2021/08/04 23:02:29;;;;;;;47.10;37.77;;;;;16.10;100712.00;;;;10526857;28;20196;-79
2021/08/04 23:07:33;;;;;;;43.87;36.67;;;;;16.10;100710.00;;;;10526400;28;20571;-78
2021/08/04 23:12:35;;;;;;;45.80;37.53;;;;;16.10;100707.00;;;;10492768;28;20189;-78
2021/08/04 23:17:37;;;;;;;50.57;39.43;;;;;16.10;100696.00;;;;10541883;28;20908;-78
2021/08/04 23:22:40;;;;;;;49.07;38.87;;;;;16.10;100687.00;;;;10492571;28;20201;-78
2021/08/04 23:27:42;;;;;;;47.50;39.33;;;;;16.00;100685.00;;;;10508029;28;20212;-77
2021/08/04 23:32:45;;;;;;;50.93;40.13;;;;;16.00;100693.00;;;;10508205;28;20215;-78
2021/08/04 23:37:46;;;;;;;46.57;38.90;;;;;16.00;100696.00;;;;10491502;28;20185;-77
2021/08/04 23:42:49;;;;;;;47.10;38.50;;;;;16.00;100693.00;;;;10507112;28;20197;-77
2021/08/04 23:47:51;;;;;;;53.40;40.37;;;;;15.90;100689.00;;;;10490779;28;20259;-77
2021/08/04 23:52:53;;;;;;;50.57;41.13;;;;;15.90;100687.00;;;;10515554;28;20198;-77
2021/08/04 23:57:55;;;;;;;52.10;41.47;;;;;15.80;100675.00;;;;10591118;28;20191;-77
